CLMO2: North Canadian River

Data processed at Mon Dec 17 2018 23:32


All information presented herein is the property of the government of the United States of America and may be revised or deleted at any time without prior notice.
Dissemination of this information without the expressed written consent of the Public Affairs Office, Tulsa District U.S. Army Corps of Engineers is strictly prohibited.
These data are gathered electronically and, as presented, have not undergone any form of quality control. These data are not guaranteed to be valid or correct.
Go to home page.
Go to station list.
Go to home page.

Upstream stations:

Downstream station:
Previous Day
Next Day
Current Day
    
SHEF ID:       CLMO2     North Canadian River near Calume
STATION TYPE:  

                STAGE  STAGE(2)  RIV-FLOW  WTR-TEMP   DIS-OXY        PH   CONDUCT  BAT-LOAD
                   ft        ft       cfs         F      mg/l        su   umho/cm      volt
              Ccp-Rev   Ccp-Rev   Ccp-Rev   Ccp-Rev   Ccp-Rev   Ccp-Rev   Ccp-Rev   Ccp-Rev
(US/Central)
12/17 00:00      5.48      ----       205     39.79     11.65      8.26      1607     12.73
12/17 01:00      5.49      ----       206     39.56     11.67      8.26      1608     12.73
12/17 02:00      5.49      ----       206     39.31     11.68      8.25      1610     12.65
12/17 03:00      5.49      ----       206     39.09     11.71      8.26      1609     12.65
12/17 04:00      5.49      ----       206     38.89     11.72      8.26      1610     12.65
12/17 05:00      5.49      ----       206     38.71     11.73      8.25      1611     12.65
12/17 06:00      5.48      ----       205     38.53     11.76      8.25      1611     12.57
12/17 07:00      5.47      ----       204     38.35     11.76      8.25      1609     12.57
12/17 08:00      5.48      ----       205     38.19     11.79      8.25      1612     12.57
12/17 09:00      5.47      ----       204     38.14     11.81      8.25      1612     12.73
12/17 10:00      5.46      ----       202     38.21     11.85      8.25      1612     13.13
12/17 11:00      5.47      ----       204     38.55     11.90      8.26      1613     13.53
12/17 12:00      5.46      ----       202     39.00     11.91      8.26      1613     13.53
12/17 13:00      5.46      ----       202     39.72     11.90      8.27      1612     13.53
12/17 14:00      5.46      ----       202     40.35     11.87      8.27      1610     13.53
12/17 15:00      5.45      ----       201     40.78     11.84      8.27      1609     13.60
12/17 16:00      5.45      ----       201     41.05     11.81      8.27      1609     13.44
12/17 17:00      5.45      ----       201     41.05     11.79      8.27      1607     13.29
12/17 18:00      5.45      ----       201     40.84     11.76      8.26      1607     13.05
12/17 19:00      5.46      ----       202     40.69     11.74      8.26      1607     12.97
12/17 20:00      5.46      ----       202     40.50     11.72      8.26      1607     12.89
12/17 21:00      5.46      ----       202     40.41     11.71      8.26      1607     12.81
12/17 22:00      5.47      ----       204     40.33     11.69      8.26      1607     12.81
12/17 23:00      5.47      ----       204     40.14     11.69      8.25      1611     12.81